createdAt,value
2018-05-29T00:01:10.996Z,83.90
2018-05-29T00:03:38.758Z,83.90
2018-05-29T00:06:06.626Z,84.40
2018-05-29T00:08:34.494Z,84.80
2018-05-29T00:11:02.292Z,85.10
2018-05-29T00:13:30.124Z,85.20
2018-05-29T00:15:58.605Z,86.00
2018-05-29T00:18:26.472Z,85.10
2018-05-29T00:20:54.236Z,85.20
2018-05-29T00:23:22.039Z,85.40
2018-05-29T00:25:49.867Z,85.50
2018-05-29T00:28:17.400Z,85.70
2018-05-29T00:30:45.678Z,85.70
2018-05-29T00:33:13.957Z,85.50
2018-05-29T00:35:42.221Z,85.40
2018-05-29T00:38:10.486Z,85.90
2018-05-29T00:40:37.996Z,85.80
2018-05-29T00:43:05.509Z,86.10
2018-05-29T00:45:33.777Z,86.50
2018-05-29T00:48:01.294Z,86.50
2018-05-29T00:50:28.812Z,86.30
2018-05-29T00:52:57.079Z,86.20
2018-05-29T00:55:39.211Z,86.30
2018-05-29T00:58:06.720Z,86.30
2018-05-29T01:00:35.738Z,87.20
2018-05-29T01:03:04.006Z,89.10
2018-05-29T01:05:31.510Z,89.10
2018-05-29T01:07:59.010Z,90.00
2018-05-29T01:10:28.018Z,89.70
2018-05-29T01:12:55.525Z,89.60
2018-05-29T01:15:23.054Z,89.50
2018-05-29T01:17:51.318Z,89.20
2018-05-29T01:20:19.588Z,89.50
2018-05-29T01:22:47.174Z,89.40
2018-05-29T01:25:14.688Z,89.60
2018-05-29T01:27:42.955Z,89.50
2018-05-29T01:30:10.584Z,89.60
2018-05-29T01:32:38.106Z,89.90
2018-05-29T01:35:06.374Z,89.30
2018-05-29T01:37:33.877Z,89.30
2018-05-29T01:40:01.385Z,89.10
2018-05-29T01:42:28.886Z,89.30
2018-05-29T01:44:56.385Z,89.60
2018-05-29T01:47:23.935Z,90.00
2018-05-29T01:52:25.458Z,90.70
2018-05-29T01:54:53.733Z,90.90
2018-05-29T01:57:22.018Z,90.90
2018-05-29T01:59:49.534Z,90.90
2018-05-29T02:02:17.155Z,90.80
2018-05-29T02:04:44.654Z,90.90
2018-05-29T02:07:12.161Z,90.70
2018-05-29T02:09:39.657Z,90.30
2018-05-29T02:12:07.161Z,90.50
2018-05-29T02:14:35.445Z,90.60
2018-05-29T02:17:03.717Z,90.70
2018-05-29T02:19:31.984Z,90.80
2018-05-29T02:22:00.249Z,91.00
2018-05-29T02:24:27.741Z,90.90
2018-05-29T02:26:55.237Z,91.20
2018-05-29T02:29:22.753Z,91.10
2018-05-29T02:31:50.254Z,90.90
2018-05-29T02:34:17.761Z,91.00
2018-05-29T02:36:46.044Z,91.10
2018-05-29T02:39:13.551Z,91.10
2018-05-29T02:41:41.065Z,91.00
2018-05-29T02:44:08.565Z,90.90
2018-05-29T02:46:36.094Z,90.90
2018-05-29T02:49:03.617Z,90.90
2018-05-29T02:51:31.901Z,91.30
2018-05-29T02:54:00.169Z,91.50
2018-05-29T02:56:28.441Z,91.70
2018-05-29T02:58:56.713Z,91.70
2018-05-29T03:01:24.217Z,91.70
2018-05-29T03:03:51.734Z,91.80
2018-05-29T03:06:19.234Z,92.00
2018-05-29T03:08:46.817Z,92.00
2018-05-29T03:11:14.317Z,91.90
2018-05-29T03:13:42.577Z,91.80
2018-05-29T03:16:10.081Z,91.80
2018-05-29T03:18:37.611Z,92.50
2018-05-29T03:21:05.880Z,92.50
2018-05-29T03:23:34.166Z,92.60
2018-05-29T03:26:02.455Z,92.60
2018-05-29T03:28:29.965Z,92.60
2018-05-29T03:30:57.484Z,92.50
2018-05-29T03:33:24.989Z,92.60
2018-05-29T03:35:52.491Z,92.90
2018-05-29T03:38:20.042Z,92.90
2018-05-29T03:40:48.313Z,93.00
2018-05-29T03:43:16.593Z,92.80
2018-05-29T03:45:44.866Z,92.70
2018-05-29T03:48:13.138Z,92.60
2018-05-29T03:50:42.410Z,92.50
2018-05-29T03:53:09.909Z,92.50
2018-05-29T03:55:38.187Z,92.20
2018-05-29T03:58:05.705Z,92.20
2018-05-29T04:00:33.205Z,92.20
2018-05-29T04:03:00.732Z,92.40
2018-05-29T04:05:29.001Z,92.50
2018-05-29T04:07:56.545Z,92.60
2018-05-29T04:10:24.039Z,92.70
2018-05-29T04:12:52.324Z,92.70
2018-05-29T04:15:20.603Z,92.80
2018-05-29T04:17:48.870Z,92.90
2018-05-29T04:20:17.135Z,93.00
2018-05-29T04:22:44.645Z,93.00
2018-05-29T04:25:12.150Z,93.20
2018-05-29T04:27:39.649Z,93.20
2018-05-29T04:30:07.166Z,93.40
2018-05-29T04:32:35.434Z,93.20
2018-05-29T04:35:02.966Z,93.10
2018-05-29T04:37:30.473Z,93.20
2018-05-29T04:39:58.750Z,92.90
2018-05-29T04:42:27.025Z,92.80
2018-05-29T04:44:55.301Z,92.70
2018-05-29T04:47:23.593Z,92.50
2018-05-29T04:49:51.861Z,92.30
2018-05-29T04:52:20.131Z,92.10
2018-05-29T04:54:48.401Z,92.00
2018-05-29T04:57:15.906Z,91.90
2018-05-29T04:59:43.435Z,91.40
2018-05-29T05:02:11.739Z,91.30
2018-05-29T05:04:39.234Z,91.30
2018-05-29T05:07:06.733Z,91.30
2018-05-29T05:09:34.989Z,91.20
2018-05-29T05:12:02.489Z,91.10
2018-05-29T05:14:30.027Z,91.20
2018-05-29T05:16:58.293Z,90.70
2018-05-29T05:19:26.557Z,90.50
2018-05-29T05:21:54.062Z,90.50
2018-05-29T05:24:21.566Z,90.60
2018-05-29T05:26:49.066Z,90.90
2018-05-29T05:29:16.569Z,90.80
2018-05-29T05:31:44.100Z,90.60
2018-05-29T05:34:12.635Z,90.00
2018-05-29T05:36:40.914Z,89.20
2018-05-29T05:39:09.201Z,89.60
2018-05-29T05:41:37.486Z,89.10
2018-05-29T05:44:05.753Z,89.40
2018-05-29T05:46:34.041Z,88.80
2018-05-29T05:49:02.331Z,89.10
2018-05-29T05:51:29.842Z,89.10
2018-05-29T05:53:58.171Z,88.90
2018-05-29T05:56:25.689Z,89.00
2018-05-29T05:58:53.992Z,88.80
2018-05-29T06:01:21.533Z,88.80
2018-05-29T06:03:49.926Z,87.50
2018-05-29T06:06:18.205Z,86.90
2018-05-29T06:08:45.712Z,86.90
2018-05-29T06:11:13.233Z,87.10
2018-05-29T06:13:40.762Z,86.60
2018-05-29T06:16:09.033Z,85.60
2018-05-29T06:18:37.305Z,85.00
2018-05-29T06:21:04.818Z,85.00
2018-05-29T06:23:32.323Z,84.40
2018-05-29T06:25:59.837Z,83.00
2018-05-29T06:28:27.353Z,83.10
2018-05-29T06:30:55.626Z,83.00
2018-05-29T06:33:23.896Z,82.10
2018-05-29T06:35:51.419Z,82.00
2018-05-29T06:38:18.952Z,82.20
2018-05-29T06:40:47.562Z,81.50
2018-05-29T06:43:15.203Z,80.90
2018-05-29T06:45:42.865Z,81.10
2018-05-29T06:48:10.491Z,80.90
2018-05-29T06:50:38.775Z,79.80
2018-05-29T06:53:07.060Z,80.10
2018-05-29T06:55:35.321Z,80.20
2018-05-29T06:58:03.597Z,79.60
2018-05-29T07:00:31.857Z,79.30
2018-05-29T07:02:59.353Z,79.20
2018-05-29T07:05:27.326Z,80.20
2018-05-29T07:07:54.869Z,79.60
2018-05-29T07:10:23.129Z,78.40
2018-05-29T07:12:50.697Z,78.20
2018-05-29T07:15:18.973Z,76.20
2018-05-29T07:17:47.241Z,76.30
2018-05-29T07:20:14.758Z,76.20
2018-05-29T07:22:42.269Z,76.30
2018-05-29T07:25:10.551Z,74.90
2018-05-29T07:27:38.066Z,74.90
2018-05-29T07:30:05.565Z,74.50
2018-05-29T07:32:33.871Z,73.70
2018-05-29T07:35:02.106Z,73.30
2018-05-29T07:37:30.382Z,72.30
2018-05-29T07:39:57.905Z,72.30
2018-05-29T07:42:25.423Z,72.80
2018-05-29T07:44:52.947Z,71.80
2018-05-29T07:47:20.450Z,73.00
2018-05-29T07:49:47.954Z,71.10
2018-05-29T07:52:15.453Z,71.70
2018-05-29T07:54:43.730Z,70.60
2018-05-29T07:57:11.999Z,68.90
2018-05-29T07:59:40.273Z,67.40
2018-05-29T08:02:08.551Z,67.10
2018-05-29T08:04:36.818Z,68.90
2018-05-29T08:07:05.791Z,67.80
2018-05-29T08:09:34.098Z,67.60
2018-05-29T08:12:02.371Z,66.00
2018-05-29T08:14:30.666Z,63.10
2018-05-29T08:16:58.173Z,63.00
2018-05-29T08:19:25.666Z,61.10
2018-05-29T08:21:53.935Z,62.50
2018-05-29T08:24:22.225Z,62.20
2018-05-29T08:26:50.489Z,62.10
2018-05-29T08:29:18.762Z,61.70
2018-05-29T08:31:47.022Z,59.60
2018-05-29T08:34:15.290Z,60.10
2018-05-29T08:36:42.795Z,60.20
2018-05-29T08:39:10.298Z,62.00
2018-05-29T08:41:37.802Z,60.70
2018-05-29T08:44:06.082Z,59.30
2018-05-29T08:46:34.350Z,59.70
2018-05-29T08:49:02.642Z,59.40
2018-05-29T08:51:30.142Z,59.30
2018-05-29T08:53:57.653Z,59.80
2018-05-29T08:56:25.930Z,58.20
2018-05-29T08:58:54.194Z,58.50
2018-05-29T09:01:22.462Z,58.80
2018-05-29T09:03:49.971Z,58.80
2018-05-29T09:06:17.481Z,58.10
2018-05-29T09:08:45.761Z,58.10
2018-05-29T09:11:14.030Z,60.30
2018-05-29T09:13:41.534Z,60.30
2018-05-29T09:16:09.034Z,58.50
2018-05-29T09:18:38.058Z,60.50
2018-05-29T09:21:06.325Z,59.90
2018-05-29T09:23:34.601Z,59.40
2018-05-29T09:26:02.940Z,59.00
2018-05-29T09:28:31.168Z,56.40
2018-05-29T09:30:59.448Z,56.20
2018-05-29T09:33:27.002Z,56.20
2018-05-29T09:35:54.521Z,56.20
2018-05-29T09:38:22.017Z,55.70
2018-05-29T09:40:50.280Z,53.90
2018-05-29T09:43:18.552Z,55.20
2018-05-29T09:45:46.086Z,55.10
2018-05-29T09:48:13.576Z,55.30
2018-05-29T09:50:41.862Z,55.00
2018-05-29T09:53:10.138Z,53.80
2018-05-29T09:55:38.397Z,55.00
2018-05-29T09:58:05.933Z,55.00
2018-05-29T10:00:39.090Z,55.60
2018-05-29T10:03:06.722Z,55.80
2018-05-29T10:05:34.986Z,56.90
2018-05-29T10:08:02.512Z,56.80
2018-05-29T10:10:30.015Z,56.70
2018-05-29T10:12:58.281Z,57.70
2018-05-29T10:15:25.789Z,57.60
2018-05-29T10:17:53.291Z,57.20
2018-05-29T10:20:20.814Z,57.00
2018-05-29T10:22:48.319Z,56.80
2018-05-29T10:25:16.601Z,57.80
2018-05-29T10:27:44.867Z,55.50
2018-05-29T10:30:13.147Z,56.40
2018-05-29T10:32:41.422Z,55.90
2018-05-29T10:35:09.701Z,56.80
2018-05-29T10:37:37.963Z,55.50
2018-05-29T10:40:08.780Z,55.40
2018-05-29T10:42:36.395Z,53.80
2018-05-29T10:45:03.915Z,53.30
2018-05-29T10:47:31.430Z,51.30
2018-05-29T10:49:58.917Z,50.30
2018-05-29T10:52:26.435Z,49.00
2018-05-29T10:54:54.702Z,47.60
2018-05-29T10:57:22.258Z,47.50
2018-05-29T10:59:50.517Z,48.00
2018-05-29T11:02:18.789Z,48.10
2018-05-29T11:04:47.054Z,47.70
2018-05-29T11:07:14.563Z,47.70
2018-05-29T11:09:42.076Z,49.90
2018-05-29T11:12:09.576Z,48.80
2018-05-29T11:14:37.073Z,49.10
2018-05-29T11:17:04.589Z,49.10
2018-05-29T11:19:32.082Z,48.30
2018-05-29T11:21:59.575Z,48.30
2018-05-29T11:24:27.082Z,46.30
2018-05-29T11:26:54.601Z,44.50
2018-05-29T11:29:22.874Z,47.20
2018-05-29T11:31:51.162Z,47.30
2018-05-29T11:34:19.415Z,48.20
2018-05-29T11:36:48.451Z,47.20
2018-05-29T11:39:15.948Z,47.20
2018-05-29T11:41:43.466Z,45.90
2018-05-29T11:44:10.969Z,46.70
2018-05-29T11:46:38.478Z,47.00
2018-05-29T11:49:05.981Z,45.80
2018-05-29T11:51:33.478Z,44.20
2018-05-29T11:54:01.769Z,44.20
2018-05-29T11:56:29.266Z,44.20
2018-05-29T11:58:56.779Z,44.10
2018-05-29T12:01:25.437Z,44.40
2018-05-29T12:03:54.437Z,42.90
2018-05-29T12:06:21.932Z,42.90
2018-05-29T12:08:49.442Z,43.50
2018-05-29T12:11:18.454Z,46.20
2018-05-29T12:13:46.735Z,45.70
2018-05-29T12:16:15.001Z,45.10
2018-05-29T12:18:42.510Z,45.10
2018-05-29T12:21:10.007Z,45.40
2018-05-29T12:23:37.510Z,44.60
2018-05-29T12:26:05.006Z,43.60
2018-05-29T12:28:32.502Z,43.50
2018-05-29T12:31:00.774Z,41.90
2018-05-29T12:33:29.049Z,43.70
2018-05-29T12:35:57.313Z,44.10
2018-05-29T12:38:24.817Z,44.10
2018-05-29T12:40:52.319Z,43.50
2018-05-29T12:43:19.829Z,42.90
2018-05-29T12:45:47.321Z,43.20
2018-05-29T12:48:14.823Z,43.20
2018-05-29T12:50:43.090Z,42.90
2018-05-29T12:53:10.585Z,42.90
2018-05-29T12:55:38.095Z,43.50
2018-05-29T12:58:05.610Z,42.10
2018-05-29T13:00:33.121Z,42.40
2018-05-29T13:03:00.627Z,41.50
2018-05-29T13:05:28.195Z,43.00
2018-05-29T13:07:55.721Z,43.10
2018-05-29T13:10:24.002Z,43.00
2018-05-29T13:12:52.258Z,42.80
2018-05-29T13:15:20.529Z,43.30
2018-05-29T13:17:48.039Z,43.30
2018-05-29T13:20:15.525Z,43.20
2018-05-29T13:22:43.034Z,40.50
2018-05-29T13:25:10.529Z,42.00
2018-05-29T13:27:38.026Z,42.50
2018-05-29T13:30:06.316Z,40.90
2018-05-29T13:32:34.601Z,39.50
2018-05-29T13:35:02.101Z,39.50
2018-05-29T13:37:29.594Z,39.70
2018-05-29T13:39:57.874Z,39.90
2018-05-29T13:42:26.153Z,41.00
2018-05-29T13:44:54.437Z,40.70
2018-05-29T13:47:22.699Z,40.90
2018-05-29T13:49:50.196Z,40.80
2018-05-29T13:52:17.699Z,40.40
2018-05-29T13:54:45.201Z,40.10
2018-05-29T13:57:12.739Z,41.60
2018-05-29T13:59:41.209Z,39.50
2018-05-29T14:02:08.703Z,39.50
2018-05-29T14:04:36.258Z,40.10
2018-05-29T14:07:03.767Z,40.00
2018-05-29T14:09:31.261Z,40.90
2018-05-29T14:11:59.539Z,39.50
2018-05-29T14:14:27.798Z,39.20
2018-05-29T14:16:55.294Z,39.10
2018-05-29T14:19:22.786Z,40.00
2018-05-29T14:21:50.293Z,38.30
2018-05-29T14:24:18.550Z,38.30
2018-05-29T14:26:46.061Z,38.30
2018-05-29T14:29:13.562Z,38.80
2018-05-29T14:31:41.066Z,38.40
2018-05-29T14:34:08.598Z,38.90
2018-05-29T14:36:36.857Z,37.50
2018-05-29T14:39:05.229Z,37.50
2018-05-29T14:41:32.822Z,36.70
2018-05-29T14:44:01.105Z,36.30
2018-05-29T14:46:29.352Z,36.90
2018-05-29T14:48:56.847Z,36.80
2018-05-29T14:51:24.371Z,37.20
2018-05-29T14:53:51.877Z,38.40
2018-05-29T14:56:22.693Z,38.30
2018-05-29T14:58:50.202Z,38.20
2018-05-29T15:01:17.717Z,38.10
2018-05-29T15:03:45.259Z,38.20
2018-05-29T15:06:13.526Z,37.90
2018-05-29T15:08:41.798Z,36.90
2018-05-29T15:11:10.061Z,37.50
2018-05-29T15:13:37.569Z,37.50
2018-05-29T15:16:05.077Z,37.90
2018-05-29T15:18:32.596Z,38.00
2018-05-29T15:21:00.077Z,38.60
2018-05-29T15:23:27.605Z,39.40
2018-05-29T15:25:55.107Z,39.50
2018-05-29T15:28:22.608Z,39.70
2018-05-29T15:30:50.105Z,40.90
2018-05-29T15:33:17.661Z,40.00
2018-05-29T15:35:45.154Z,40.20
2018-05-29T15:38:13.427Z,39.30
2018-05-29T15:40:40.936Z,39.10
2018-05-29T15:43:08.429Z,37.90
2018-05-29T15:45:35.934Z,37.50
2018-05-29T15:48:03.430Z,37.80
2018-05-29T15:50:30.929Z,38.00
2018-05-29T15:52:59.189Z,38.70
2018-05-29T15:55:26.700Z,38.60
2018-05-29T15:57:54.198Z,39.40
2018-05-29T16:00:21.685Z,40.20
2018-05-29T16:02:50.068Z,42.30
2018-05-29T16:05:18.330Z,43.00
2018-05-29T16:07:45.829Z,42.90
2018-05-29T16:10:13.342Z,43.60
2018-05-29T16:12:40.839Z,44.00
2018-05-29T16:15:08.337Z,45.00
2018-05-29T16:17:35.853Z,45.00
2018-05-29T16:20:03.369Z,44.50
2018-05-29T16:22:30.865Z,43.70
2018-05-29T16:24:58.369Z,42.80
2018-05-29T16:27:25.878Z,43.30
2018-05-29T16:29:53.377Z,43.90
2018-05-29T16:32:20.904Z,44.80
2018-05-29T16:34:48.394Z,46.00
2018-05-29T16:37:15.898Z,47.10
2018-05-29T16:39:44.169Z,49.00
2018-05-29T16:42:12.429Z,50.30
2018-05-29T16:44:39.933Z,50.30
2018-05-29T16:47:07.430Z,50.60
2018-05-29T16:49:34.942Z,51.20
2018-05-29T16:52:02.451Z,51.80
2018-05-29T16:54:29.945Z,52.70
2018-05-29T16:56:58.209Z,52.90
2018-05-29T16:59:26.493Z,53.50
2018-05-29T17:01:54.754Z,54.00
2018-05-29T17:04:22.345Z,53.90
2018-05-29T17:06:49.857Z,54.40
2018-05-29T17:09:17.369Z,55.10
2018-05-29T17:11:44.861Z,55.50
2018-05-29T17:14:12.353Z,56.30
2018-05-29T17:16:39.865Z,56.20
2018-05-29T17:19:07.357Z,56.10
2018-05-29T17:21:35.622Z,56.30
2018-05-29T17:24:03.146Z,56.40
2018-05-29T17:26:30.637Z,55.00
2018-05-29T17:28:58.144Z,54.40
2018-05-29T17:31:26.414Z,53.70
2018-05-29T17:33:54.673Z,53.10
2018-05-29T17:36:22.166Z,53.10
2018-05-29T17:38:49.673Z,52.30
2018-05-29T17:41:17.164Z,52.00
2018-05-29T17:43:45.418Z,52.20
2018-05-29T17:46:12.925Z,52.20
2018-05-29T17:48:40.422Z,52.90
2018-05-29T17:51:07.960Z,53.60
2018-05-29T17:53:35.465Z,53.90
2018-05-29T17:56:03.758Z,54.20
2018-05-29T17:58:32.018Z,54.50
2018-05-29T18:01:00.302Z,54.30
2018-05-29T18:03:28.579Z,54.30
2018-05-29T18:05:56.853Z,54.40
2018-05-29T18:08:25.137Z,54.50
2018-05-29T18:10:53.421Z,54.60
2018-05-29T18:13:20.946Z,54.50
2018-05-29T18:15:48.469Z,55.00
2018-05-29T18:18:15.962Z,55.30
2018-05-29T18:20:43.502Z,55.80
2018-05-29T18:23:11.007Z,55.70
2018-05-29T18:25:39.822Z,55.90
2018-05-29T18:28:07.321Z,55.90
2018-05-29T18:30:35.582Z,56.40
2018-05-29T18:33:03.078Z,56.40
2018-05-29T18:35:31.355Z,56.80
2018-05-29T18:37:59.615Z,56.70
2018-05-29T18:40:27.878Z,56.60
2018-05-29T18:42:55.409Z,56.50
2018-05-29T18:45:22.901Z,56.40
2018-05-29T18:47:50.393Z,56.40
2018-05-29T18:50:18.726Z,56.50
2018-05-29T18:52:46.211Z,56.50
2018-05-29T18:55:13.721Z,55.70
2018-05-29T18:57:41.235Z,54.80
2018-05-29T19:00:09.501Z,54.20
2018-05-29T19:02:37.782Z,54.40
2018-05-29T19:05:05.282Z,54.30
2018-05-29T19:07:32.778Z,53.80
2018-05-29T19:10:00.288Z,53.30
2018-05-29T19:12:28.502Z,53.30
2018-05-29T19:14:56.018Z,51.30
2018-05-29T19:17:23.514Z,51.30
2018-05-29T19:19:51.009Z,51.20
2018-05-29T19:22:19.273Z,50.30
2018-05-29T19:24:46.765Z,50.20
2018-05-29T19:27:14.269Z,50.30
2018-05-29T19:29:41.770Z,50.40
2018-05-29T19:32:10.029Z,50.80
2018-05-29T19:34:37.531Z,50.70
2018-05-29T19:37:05.025Z,51.10
2018-05-29T19:39:32.516Z,51.40
2018-05-29T19:42:00.793Z,52.20
2018-05-29T19:44:29.053Z,52.50
2018-05-29T19:46:56.546Z,52.50
2018-05-29T19:49:24.042Z,52.70
2018-05-29T19:51:51.558Z,53.10
2018-05-29T19:54:19.049Z,53.50
2018-05-29T19:56:46.552Z,54.00
2018-05-29T19:59:14.055Z,54.90
2018-05-29T20:01:41.546Z,54.50
2018-05-29T20:04:09.037Z,54.90
2018-05-29T20:06:37.297Z,55.80
2018-05-29T20:09:05.890Z,55.20
2018-05-29T20:11:34.257Z,55.40
2018-05-29T20:14:01.751Z,55.50
2018-05-29T20:16:29.255Z,55.50
2018-05-29T20:18:56.754Z,55.60
2018-05-29T20:21:25.021Z,55.70
2018-05-29T20:23:53.277Z,55.70
2018-05-29T20:26:20.765Z,55.70
2018-05-29T20:28:49.031Z,56.00
2018-05-29T20:31:17.351Z,56.30
2018-05-29T20:33:45.602Z,56.30
2018-05-29T20:36:13.089Z,56.20
2018-05-29T20:38:40.601Z,56.40
2018-05-29T20:41:08.881Z,56.20
2018-05-29T20:43:37.190Z,56.10
2018-05-29T20:46:05.429Z,56.10
2018-05-29T20:48:33.697Z,56.30
2018-05-29T20:51:01.973Z,56.50
2018-05-29T20:53:29.481Z,56.50
2018-05-29T20:55:56.993Z,56.70
2018-05-29T20:58:24.481Z,56.70
2018-05-29T21:00:51.990Z,57.50
2018-05-29T21:03:19.494Z,57.20
2018-05-29T21:05:46.989Z,57.70
2018-05-29T21:08:14.478Z,58.10
2018-05-29T21:10:41.966Z,58.30
2018-05-29T21:13:09.481Z,58.60
2018-05-29T21:15:37.010Z,58.70
2018-05-29T21:18:04.536Z,58.80
2018-05-29T21:20:32.794Z,60.10
2018-05-29T21:23:00.302Z,60.10
2018-05-29T21:25:27.802Z,61.50
2018-05-29T21:27:55.294Z,60.90
2018-05-29T21:30:23.566Z,61.40
2018-05-29T21:32:51.825Z,61.30
2018-05-29T21:35:20.094Z,61.50
2018-05-29T21:37:47.586Z,61.30
2018-05-29T21:40:15.137Z,61.40
2018-05-29T21:42:42.637Z,61.60
2018-05-29T21:45:10.129Z,61.60
2018-05-29T21:47:37.621Z,61.50
2018-05-29T21:50:05.118Z,61.50
2018-05-29T21:52:32.609Z,61.30
2018-05-29T21:55:00.887Z,62.20
2018-05-29T21:57:29.149Z,61.20
2018-05-29T21:59:56.703Z,61.20
2018-05-29T22:02:24.174Z,61.00
2018-05-29T22:04:52.442Z,62.80
2018-05-29T22:07:19.954Z,62.10
2018-05-29T22:09:47.440Z,61.80
2018-05-29T22:12:14.934Z,61.10
2018-05-29T22:14:43.229Z,60.90
2018-05-29T22:17:10.742Z,61.00
2018-05-29T22:19:38.234Z,61.20
2018-05-29T22:22:06.501Z,61.50
2018-05-29T22:24:34.790Z,61.50
2018-05-29T22:27:03.054Z,61.60
2018-05-29T22:29:31.321Z,62.00
2018-05-29T22:31:58.826Z,62.00
2018-05-29T22:34:26.313Z,62.10
2018-05-29T22:36:53.806Z,62.50
2018-05-29T22:39:22.074Z,63.00
2018-05-29T22:41:49.569Z,62.80
2018-05-29T22:44:17.058Z,63.20
2018-05-29T22:46:44.558Z,63.60
2018-05-29T22:49:12.845Z,64.00
2018-05-29T22:51:41.100Z,63.90
2018-05-29T22:54:08.681Z,63.90
2018-05-29T22:56:36.945Z,64.00
2018-05-29T22:59:05.209Z,64.00
2018-05-29T23:44:52.772Z,59.60
2018-05-29T23:47:20.265Z,59.40
2018-05-29T23:49:47.782Z,59.40
2018-05-29T23:52:15.287Z,59.10
2018-05-29T23:54:42.797Z,58.50
2018-05-29T23:57:10.294Z,58.70
2018-05-29T23:59:37.795Z,58.80
